createdAt,value
2023-04-15T00:03:05.849Z,12.80
2023-04-15T00:08:08.022Z,14.50
2023-04-15T00:13:10.025Z,13.50
2023-04-15T00:18:12.798Z,14.20
2023-04-15T00:23:14.816Z,13.80
2023-04-15T00:28:17.216Z,13.60
2023-04-15T00:33:19.136Z,13.70
2023-04-15T00:38:21.125Z,12.00
2023-04-15T00:43:23.074Z,18.10
2023-04-15T00:48:26.795Z,13.80
2023-04-15T00:53:28.716Z,13.30
2023-04-15T00:58:30.955Z,12.80
2023-04-15T01:03:33.051Z,11.00
2023-04-15T01:08:36.384Z,12.40
2023-04-15T01:13:38.556Z,13.70
2023-04-15T01:18:41.579Z,14.30
2023-04-15T01:23:46.914Z,13.30
2023-04-15T01:28:48.840Z,13.60
2023-04-15T01:33:50.991Z,13.50
2023-04-15T01:38:52.987Z,12.40
2023-04-15T01:43:55.454Z,11.60
2023-04-15T01:48:57.547Z,13.10
2023-04-15T01:53:59.580Z,11.40
2023-04-15T01:59:01.807Z,14.80
2023-04-15T02:04:04.202Z,14.40
2023-04-15T02:09:06.024Z,13.10
2023-04-15T02:14:07.954Z,11.20
2023-04-15T02:19:10.410Z,12.70
2023-04-15T02:24:12.838Z,11.60
2023-04-15T02:29:14.851Z,14.50
2023-04-15T02:34:17.071Z,12.60
2023-04-15T02:39:19.762Z,12.50
2023-04-15T02:44:23.264Z,10.50
2023-04-15T02:49:26.119Z,12.30
2023-04-15T02:54:28.454Z,14.30
2023-04-15T02:59:30.357Z,12.20
2023-04-15T03:04:32.188Z,11.50
2023-04-15T03:09:34.660Z,10.80
2023-04-15T03:14:36.587Z,10.60
2023-04-15T03:19:38.608Z,11.60
2023-04-15T03:24:40.936Z,10.00
2023-04-15T03:29:42.862Z,12.50
2023-04-15T03:34:44.882Z,10.40
2023-04-15T03:39:46.776Z,12.00
2023-04-15T03:44:48.710Z,11.90
2023-04-15T03:49:50.670Z,11.60
2023-04-15T03:54:52.629Z,11.20
2023-04-15T03:59:54.571Z,10.90
2023-04-15T04:04:56.678Z,11.90
2023-04-15T04:09:58.705Z,9.70
2023-04-15T04:15:01.209Z,11.10
2023-04-15T04:20:03.209Z,10.00
2023-04-15T04:25:05.870Z,10.00
2023-04-15T04:30:08.477Z,9.80
2023-04-15T04:35:11.077Z,11.80
2023-04-15T04:40:13.586Z,11.80
2023-04-15T04:45:15.564Z,10.00
2023-04-15T04:50:17.603Z,12.70
2023-04-15T04:55:19.732Z,10.60
2023-04-15T05:00:22.629Z,11.50
2023-04-15T05:05:24.612Z,11.20
2023-04-15T05:10:26.545Z,10.80
2023-04-15T05:15:28.437Z,10.60
2023-04-15T05:20:30.575Z,9.90
2023-04-15T05:25:32.550Z,11.20
2023-04-15T05:30:35.176Z,9.30
2023-04-15T05:35:37.239Z,13.40
2023-04-15T05:40:39.301Z,13.00
2023-04-15T05:45:42.200Z,14.80
2023-04-15T05:50:44.106Z,12.80
2023-04-15T05:55:46.528Z,9.80
2023-04-15T06:00:49.018Z,13.90
2023-04-15T06:05:51.121Z,11.90
2023-04-15T06:10:53.059Z,12.80
2023-04-15T06:15:54.964Z,11.30
2023-04-15T06:20:57.086Z,12.10
2023-04-15T06:25:59.040Z,11.60
2023-04-15T06:31:02.155Z,12.90
2023-04-15T06:36:04.897Z,10.60
2023-04-15T06:41:07.543Z,10.00
2023-04-15T06:46:10.145Z,10.50
2023-04-15T06:51:12.331Z,17.30
2023-04-15T06:56:15.450Z,11.20
2023-04-15T07:01:17.509Z,11.90
2023-04-15T07:06:19.443Z,11.20
2023-04-15T07:11:22.088Z,10.40
2023-04-15T07:16:24.447Z,12.60
2023-04-15T07:21:27.345Z,9.60
2023-04-15T07:26:29.951Z,12.90
2023-04-15T07:31:31.857Z,11.00
2023-04-15T07:36:34.398Z,9.50
2023-04-15T07:41:36.997Z,12.60
2023-04-15T07:46:39.187Z,11.00
2023-04-15T07:51:41.322Z,11.50
2023-04-15T07:56:46.447Z,11.50
2023-04-15T08:01:49.760Z,10.80
2023-04-15T08:06:52.224Z,12.00
2023-04-15T08:11:54.422Z,10.10
2023-04-15T08:16:56.865Z,11.80
2023-04-15T08:21:58.831Z,12.10
2023-04-15T08:27:03.952Z,13.60
2023-04-15T08:32:07.427Z,10.70
2023-04-15T08:37:12.811Z,9.70
2023-04-15T08:42:26.909Z,9.70
2023-04-15T08:47:34.195Z,10.40
2023-04-15T08:52:36.913Z,10.90
2023-04-15T08:57:39.587Z,10.90
2023-04-15T09:02:42.993Z,13.90
2023-04-15T09:07:45.268Z,11.60
2023-04-15T09:12:47.165Z,11.50
2023-04-15T09:17:49.111Z,11.10
2023-04-15T09:22:51.951Z,10.30
2023-04-15T09:27:57.149Z,12.30
2023-04-15T09:33:10.741Z,12.30
2023-04-15T09:38:12.929Z,11.00
2023-04-15T09:43:19.494Z,12.10
2023-04-15T09:48:31.234Z,11.00
2023-04-15T09:53:36.178Z,11.20
2023-04-15T09:58:38.507Z,11.40
2023-04-15T10:03:42.150Z,12.10
2023-04-15T10:08:44.361Z,10.10
2023-04-15T10:13:48.858Z,11.90
2023-04-15T10:18:58.347Z,11.20
2023-04-15T10:24:03.214Z,9.50
2023-04-15T10:29:05.667Z,13.40
2023-04-15T10:34:08.559Z,11.40
2023-04-15T10:39:50.301Z,10.50
2023-04-15T10:44:57.136Z,13.70
2023-04-15T10:50:01.570Z,15.10
2023-04-15T10:55:12.416Z,13.20
2023-04-15T11:00:16.887Z,14.50
2023-04-15T11:05:21.191Z,10.90
2023-04-15T11:10:26.502Z,10.10
2023-04-15T11:15:36.228Z,17.30
2023-04-15T11:20:39.518Z,13.00
2023-04-15T11:25:45.182Z,12.60
2023-04-15T11:30:47.908Z,12.50
2023-04-15T11:35:52.547Z,14.90
2023-04-15T11:40:54.549Z,11.20
2023-04-15T11:46:02.080Z,13.70
2023-04-15T11:51:06.667Z,12.30
2023-04-15T11:56:11.247Z,14.00
2023-04-15T12:01:13.428Z,13.00
2023-04-15T12:06:23.128Z,12.70
2023-04-15T12:11:35.702Z,10.50
2023-04-15T12:16:48.416Z,9.20
2023-04-15T12:21:53.186Z,11.20
2023-04-15T12:26:57.936Z,12.70
2023-04-15T12:32:14.623Z,15.40
2023-04-15T12:37:17.326Z,10.20
2023-04-15T12:42:20.017Z,12.00
2023-04-15T12:47:22.403Z,9.50
2023-04-15T12:52:24.956Z,9.70
2023-04-15T12:57:27.409Z,11.50
2023-04-15T13:02:29.518Z,11.60
2023-04-15T13:07:31.906Z,9.10
2023-04-15T13:12:36.777Z,7.20
2023-04-15T13:17:38.751Z,7.30
2023-04-15T13:22:42.230Z,9.50
2023-04-15T13:27:44.366Z,8.20
2023-04-15T13:32:46.862Z,10.90
2023-04-15T13:37:50.208Z,8.40
2023-04-15T13:42:52.839Z,7.30
2023-04-15T13:47:55.980Z,8.40
2023-04-15T13:52:57.948Z,8.20
2023-04-15T13:57:59.961Z,7.10
2023-04-15T14:03:02.116Z,9.30
2023-04-15T14:08:04.792Z,7.10
2023-04-15T14:13:06.806Z,8.20
2023-04-15T14:18:09.769Z,7.80
2023-04-15T14:23:11.927Z,9.30
2023-04-15T14:28:14.075Z,8.00
2023-04-15T14:33:16.092Z,7.70
2023-04-15T14:38:18.216Z,10.00
2023-04-15T14:43:21.669Z,11.00
2023-04-15T14:48:23.706Z,8.20
2023-04-15T14:53:26.206Z,8.40
2023-04-15T14:58:28.160Z,6.50
2023-04-15T15:03:30.756Z,8.90
2023-04-15T15:08:35.965Z,7.30
2023-04-15T15:13:38.122Z,8.20
2023-04-15T15:18:40.780Z,10.60
2023-04-15T15:23:42.680Z,9.70
2023-04-15T15:28:45.772Z,6.40
2023-04-15T15:33:47.758Z,8.50
2023-04-15T15:38:49.634Z,6.00
2023-04-15T15:43:54.798Z,5.80
2023-04-15T15:48:57.989Z,5.80
2023-04-15T15:54:00.986Z,7.30
2023-04-15T15:59:03.030Z,5.50
2023-04-15T16:04:05.700Z,9.10
2023-04-15T16:09:07.811Z,6.80
2023-04-15T16:14:10.201Z,7.40
2023-04-15T16:19:13.115Z,6.30
2023-04-15T16:24:15.490Z,7.00
2023-04-15T16:29:17.482Z,6.90
2023-04-15T16:34:19.524Z,7.20
2023-04-15T16:39:23.654Z,7.50
2023-04-15T16:44:26.427Z,7.10
2023-04-15T16:49:30.050Z,6.40
2023-04-15T16:54:35.625Z,5.70
2023-04-15T16:59:38.788Z,6.30
2023-04-15T17:04:41.593Z,5.80
2023-04-15T17:09:44.312Z,7.00
2023-04-15T17:14:46.483Z,5.80
2023-04-15T17:19:49.217Z,6.90
2023-04-15T17:24:51.451Z,7.40
2023-04-15T17:29:54.514Z,6.30
2023-04-15T17:34:56.547Z,7.60
2023-04-15T17:39:58.775Z,6.60
2023-04-15T17:45:00.848Z,8.30
2023-04-15T17:50:03.431Z,7.30
2023-04-15T17:55:06.601Z,6.80
2023-04-15T18:00:10.223Z,5.50
2023-04-15T18:05:12.348Z,6.00
2023-04-15T18:10:14.807Z,6.30
2023-04-15T18:15:17.287Z,5.50
2023-04-15T18:20:19.639Z,7.00
2023-04-15T18:25:21.611Z,5.20
2023-04-15T18:30:23.810Z,5.10
2023-04-15T18:35:25.680Z,5.00
2023-04-15T18:40:27.712Z,4.40
2023-04-15T18:45:30.601Z,5.00
2023-04-15T18:50:32.737Z,4.20
2023-04-15T18:55:35.524Z,4.80
2023-04-15T19:00:41.229Z,4.30
2023-04-15T19:05:43.246Z,4.60
2023-04-15T19:10:46.193Z,3.70
2023-04-15T19:15:48.591Z,5.50
2023-04-15T19:20:52.250Z,4.40
2023-04-15T19:25:56.774Z,6.30
2023-04-15T19:30:59.525Z,6.60
2023-04-15T19:36:04.084Z,6.00
2023-04-15T19:41:06.197Z,5.60
2023-04-15T19:46:08.542Z,5.70
2023-04-15T19:51:11.000Z,6.20
2023-04-15T19:56:14.303Z,5.30
2023-04-15T20:01:16.271Z,6.60
2023-04-15T20:06:18.225Z,5.60
2023-04-15T20:11:21.280Z,10.30
2023-04-15T20:16:24.254Z,8.20
2023-04-15T20:21:26.671Z,7.20
2023-04-15T20:26:30.210Z,7.00
2023-04-15T20:31:35.794Z,6.80
2023-04-15T20:36:38.319Z,6.00
2023-04-15T20:41:40.433Z,7.30
2023-04-15T20:46:42.442Z,5.90
2023-04-15T20:51:44.425Z,6.60
2023-04-15T20:56:46.474Z,6.70
2023-04-15T21:01:48.475Z,7.30
2023-04-15T21:06:51.798Z,10.30
2023-04-15T21:12:01.199Z,5.60
2023-04-15T21:17:10.047Z,6.50
2023-04-15T21:22:13.060Z,5.80
2023-04-15T21:27:15.620Z,6.40
2023-04-15T21:32:17.662Z,7.50
2023-04-15T21:37:19.806Z,6.50
2023-04-15T21:42:21.751Z,6.00
2023-04-15T21:47:23.807Z,6.40
2023-04-15T21:52:25.759Z,6.60
2023-04-15T21:57:27.690Z,6.70
2023-04-15T22:02:29.775Z,5.20
2023-04-15T22:07:31.892Z,6.20
2023-04-15T22:12:33.857Z,7.00
2023-04-15T22:17:36.546Z,7.90
2023-04-15T22:22:44.180Z,6.70
2023-04-15T22:27:46.863Z,5.80
2023-04-15T22:32:48.816Z,6.60
2023-04-15T22:37:52.269Z,7.80
2023-04-15T22:42:54.706Z,5.70
2023-04-15T22:47:56.738Z,6.70
2023-04-15T22:52:58.712Z,6.20
2023-04-15T22:58:00.684Z,6.50
2023-04-15T23:03:02.902Z,9.50
2023-04-15T23:08:05.492Z,8.20
2023-04-15T23:13:07.465Z,6.40
2023-04-15T23:18:09.608Z,7.30
2023-04-15T23:23:11.615Z,7.20
2023-04-15T23:28:13.839Z,7.20
2023-04-15T23:33:15.880Z,7.00
2023-04-15T23:38:17.827Z,8.50
2023-04-15T23:43:19.852Z,7.30
2023-04-15T23:48:23.354Z,6.70
2023-04-15T23:53:25.346Z,6.90
2023-04-15T23:58:27.293Z,7.40
